createdAt,value
2023-03-05T00:02:01.940Z,0.68
2023-03-05T00:04:29.854Z,0.90
2023-03-05T00:09:49.821Z,1.08
2023-03-05T00:12:18.068Z,1.40
2023-03-05T00:14:45.843Z,1.02
2023-03-05T00:17:13.897Z,0.80
2023-03-05T00:19:42.000Z,0.98
2023-03-05T00:22:09.940Z,1.08
2023-03-05T00:24:38.081Z,0.90
2023-03-05T00:27:10.101Z,1.02
2023-03-05T00:29:37.915Z,0.65
2023-03-05T00:35:02.826Z,0.90
2023-03-05T00:37:29.816Z,0.65
2023-03-05T00:39:57.878Z,0.95
2023-03-05T00:42:26.106Z,1.27
2023-03-05T00:44:53.782Z,0.77
2023-03-05T00:47:21.906Z,0.55
2023-03-05T00:49:50.147Z,0.77
2023-03-05T00:52:19.163Z,0.68
2023-03-05T00:54:50.867Z,0.73
2023-03-05T00:57:29.159Z,0.63
2023-03-05T00:59:56.122Z,0.90
2023-03-05T01:02:24.055Z,0.70
2023-03-05T01:04:51.812Z,1.08
2023-03-05T01:07:19.762Z,1.02
2023-03-05T01:09:52.889Z,0.95
2023-03-05T01:12:47.915Z,0.80
2023-03-05T01:15:17.619Z,1.00
2023-03-05T01:18:16.829Z,0.70
2023-03-05T01:20:43.899Z,1.23
2023-03-05T01:24:03.596Z,1.20
2023-03-05T01:26:36.116Z,1.08
2023-03-05T01:29:09.378Z,1.10
2023-03-05T01:34:29.848Z,0.75
2023-03-05T01:36:57.793Z,0.80
2023-03-05T01:39:25.820Z,0.90
2023-03-05T01:41:54.540Z,0.90
2023-03-05T01:44:27.909Z,1.13
2023-03-05T01:47:00.161Z,1.63
2023-03-05T01:49:35.777Z,1.42
2023-03-05T01:52:19.965Z,1.00
2023-03-05T01:54:53.541Z,1.40
2023-03-05T01:57:27.308Z,1.25
2023-03-05T02:00:01.191Z,1.20
2023-03-05T02:02:30.056Z,1.13
2023-03-05T02:05:04.157Z,1.50
2023-03-05T02:07:45.278Z,1.17
2023-03-05T02:10:18.340Z,1.30
2023-03-05T02:12:53.349Z,1.23
2023-03-05T02:15:22.550Z,1.42
2023-03-05T02:17:51.830Z,1.27
2023-03-05T02:20:25.975Z,1.17
2023-03-05T02:22:54.379Z,1.45
2023-03-05T02:28:23.087Z,1.45
2023-03-05T02:30:50.353Z,1.30
2023-03-05T02:33:19.627Z,1.20
2023-03-05T02:35:48.324Z,1.10
2023-03-05T02:38:18.026Z,1.30
2023-03-05T02:40:49.841Z,1.40
2023-03-05T02:43:18.169Z,1.50
2023-03-05T02:45:45.813Z,1.58
2023-03-05T02:48:18.877Z,1.40
2023-03-05T02:50:48.665Z,1.70
2023-03-05T02:53:47.106Z,1.30
2023-03-05T02:59:09.920Z,1.45
2023-03-05T03:01:37.819Z,1.10
2023-03-05T03:04:10.077Z,0.95
2023-03-05T03:06:37.775Z,0.80
2023-03-05T03:09:29.868Z,1.10
2023-03-05T03:12:02.821Z,0.75
2023-03-05T03:14:39.056Z,1.48
2023-03-05T03:17:14.925Z,0.85
2023-03-05T03:19:42.276Z,1.20
2023-03-05T03:22:11.536Z,1.30
2023-03-05T03:24:41.354Z,0.70
2023-03-05T03:27:10.643Z,1.10
2023-03-05T03:29:39.620Z,1.08
2023-03-05T03:32:08.940Z,1.35
2023-03-05T03:34:36.279Z,1.20
2023-03-05T03:40:19.978Z,1.00
2023-03-05T03:42:53.184Z,1.17
2023-03-05T03:45:22.287Z,1.05
2023-03-05T03:51:08.133Z,1.00
2023-03-05T03:53:35.903Z,1.25
2023-03-05T03:56:04.108Z,1.35
2023-03-05T03:58:32.462Z,1.40
2023-03-05T04:01:00.093Z,1.33
2023-03-05T04:03:28.255Z,1.05
2023-03-05T04:05:55.841Z,1.30
2023-03-05T04:08:23.958Z,1.27
2023-03-05T04:10:52.084Z,1.25
2023-03-05T04:13:19.924Z,1.23
2023-03-05T04:15:47.966Z,1.17
2023-03-05T04:18:15.912Z,1.52
2023-03-05T04:20:44.092Z,1.52
2023-03-05T04:23:11.825Z,1.10
2023-03-05T04:25:39.998Z,1.67
2023-03-05T04:28:07.805Z,0.85
2023-03-05T04:30:35.845Z,1.02
2023-03-05T04:33:07.815Z,0.88
2023-03-05T04:35:35.780Z,1.35
2023-03-05T04:38:04.055Z,0.80
2023-03-05T04:40:36.571Z,0.80
2023-03-05T04:43:04.685Z,1.08
2023-03-05T04:45:37.210Z,0.98
2023-03-05T04:48:06.311Z,1.00
2023-03-05T04:50:33.847Z,0.88
2023-03-05T04:53:02.640Z,1.02
2023-03-05T05:01:19.851Z,1.30
2023-03-05T05:03:52.902Z,1.55
2023-03-05T05:06:19.871Z,1.48
2023-03-05T05:08:47.872Z,1.83
2023-03-05T05:11:15.785Z,1.80
2023-03-05T05:13:43.808Z,2.28
2023-03-05T05:16:11.989Z,2.05
2023-03-05T05:19:10.872Z,2.30
2023-03-05T05:21:38.256Z,2.20
2023-03-05T05:24:06.425Z,2.40
2023-03-05T05:26:33.825Z,2.90
2023-03-05T05:29:05.874Z,2.20
2023-03-05T05:31:34.372Z,2.28
2023-03-05T05:34:01.919Z,2.08
2023-03-05T05:36:34.943Z,2.30
2023-03-05T05:39:01.946Z,2.13
2023-03-05T05:41:34.872Z,2.17
2023-03-05T05:44:02.102Z,1.33
2023-03-05T05:46:29.901Z,1.50
2023-03-05T05:48:57.757Z,1.65
2023-03-05T05:51:25.852Z,1.70
2023-03-05T05:53:54.202Z,1.70
2023-03-05T05:56:21.976Z,1.60
2023-03-05T05:59:15.903Z,1.45
2023-03-05T06:01:43.947Z,1.30
2023-03-05T06:04:11.797Z,1.45
2023-03-05T06:06:40.036Z,1.27
2023-03-05T06:09:08.010Z,1.08
2023-03-05T06:11:36.924Z,0.80
2023-03-05T06:14:30.129Z,1.50
2023-03-05T06:16:58.013Z,0.93
2023-03-05T06:19:25.875Z,1.33
2023-03-05T06:21:54.234Z,1.00
2023-03-05T06:24:22.560Z,1.35
2023-03-05T06:26:49.854Z,1.25
2023-03-05T06:29:18.128Z,1.08
2023-03-05T06:32:12.083Z,1.30
2023-03-05T06:34:39.840Z,1.00
2023-03-05T06:37:33.855Z,0.90
2023-03-05T06:40:33.046Z,1.08
2023-03-05T06:42:59.834Z,1.20
2023-03-05T06:45:28.007Z,1.00
2023-03-05T06:47:55.960Z,0.88
2023-03-05T06:50:23.894Z,0.82
2023-03-05T06:52:51.921Z,0.82
2023-03-05T06:58:16.831Z,0.80
2023-03-05T07:00:44.624Z,0.82
2023-03-05T07:03:18.316Z,0.90
2023-03-05T07:05:46.100Z,0.70
2023-03-05T07:11:19.076Z,0.60
2023-03-05T07:13:47.905Z,0.70
2023-03-05T07:16:28.245Z,0.63
2023-03-05T07:18:58.022Z,0.70
2023-03-05T07:21:31.566Z,0.60
2023-03-05T07:24:06.207Z,0.52
2023-03-05T07:29:27.644Z,0.73
2023-03-05T07:32:20.093Z,0.50
2023-03-05T07:34:47.849Z,0.55
2023-03-05T07:37:15.853Z,0.70
2023-03-05T07:39:45.697Z,0.47
2023-03-05T07:42:19.910Z,0.80
2023-03-05T07:44:53.848Z,0.70
2023-03-05T07:47:25.870Z,1.20
2023-03-05T07:50:18.791Z,1.02
2023-03-05T07:52:53.067Z,0.80
2023-03-05T07:55:19.901Z,0.70
2023-03-05T07:57:47.886Z,0.65
2023-03-05T08:00:16.035Z,1.23
2023-03-05T08:02:48.867Z,0.70
2023-03-05T08:05:16.090Z,1.15
2023-03-05T08:08:10.166Z,0.50
2023-03-05T08:10:38.153Z,0.80
2023-03-05T08:13:06.618Z,0.65
2023-03-05T08:15:34.195Z,0.65
2023-03-05T08:18:02.052Z,0.73
2023-03-05T08:20:30.175Z,1.38
2023-03-05T08:23:03.248Z,0.77
2023-03-05T08:25:32.061Z,0.98
2023-03-05T08:28:00.321Z,0.73
2023-03-05T08:30:27.862Z,1.10
2023-03-05T08:32:57.250Z,0.65
2023-03-05T08:35:26.144Z,0.65
2023-03-05T08:37:57.784Z,0.90
2023-03-05T08:40:26.043Z,0.85
2023-03-05T08:42:58.822Z,0.52
2023-03-05T08:45:53.536Z,0.70
2023-03-05T08:48:21.907Z,0.80
2023-03-05T08:50:54.986Z,0.90
2023-03-05T08:53:22.271Z,1.17
2023-03-05T08:55:57.739Z,0.80
2023-03-05T08:58:26.506Z,2.15
2023-03-05T09:00:53.840Z,0.57
2023-03-05T09:03:27.208Z,0.82
2023-03-05T09:06:03.404Z,0.82
2023-03-05T09:08:32.065Z,0.52
2023-03-05T09:11:03.291Z,0.50
2023-03-05T09:13:33.285Z,0.73
2023-03-05T09:16:07.134Z,0.85
2023-03-05T09:18:36.668Z,0.98
2023-03-05T09:21:08.741Z,0.93
2023-03-05T09:23:36.812Z,1.48
2023-03-05T09:26:36.629Z,0.77
2023-03-05T09:29:04.396Z,1.20
2023-03-05T09:31:31.939Z,0.80
2023-03-05T09:36:51.981Z,1.00
2023-03-05T09:39:19.913Z,0.93
2023-03-05T09:45:39.726Z,0.50
2023-03-05T09:48:25.939Z,0.60
2023-03-05T09:51:04.449Z,0.82
2023-03-05T09:53:46.568Z,0.93
2023-03-05T09:56:16.896Z,1.00
2023-03-05T09:58:48.671Z,1.00
2023-03-05T10:01:42.727Z,0.90
2023-03-05T10:04:26.440Z,0.73
2023-03-05T10:07:11.912Z,0.82
2023-03-05T10:09:57.899Z,0.57
2023-03-05T10:12:51.066Z,0.70
2023-03-05T10:15:32.581Z,0.95
2023-03-05T10:18:23.654Z,0.70
2023-03-05T10:24:50.208Z,0.80
2023-03-05T10:27:26.017Z,0.80
2023-03-05T10:30:00.032Z,0.70
2023-03-05T10:36:12.984Z,0.40
2023-03-05T10:39:12.459Z,0.98
2023-03-05T10:42:20.178Z,0.40
2023-03-05T10:44:52.945Z,0.75
2023-03-05T10:47:28.605Z,0.60
2023-03-05T10:49:57.320Z,0.70
2023-03-05T10:52:38.083Z,1.17
2023-03-05T10:55:21.888Z,1.17
2023-03-05T10:57:49.756Z,0.70
2023-03-05T11:00:30.184Z,0.80
2023-03-05T11:03:07.093Z,0.60
2023-03-05T11:05:51.974Z,0.90
2023-03-05T11:08:25.725Z,1.00
2023-03-05T11:11:17.003Z,0.70
2023-03-05T11:13:57.555Z,0.68
2023-03-05T11:16:34.251Z,0.95
2023-03-05T11:19:37.698Z,0.52
2023-03-05T11:22:15.731Z,0.63
2023-03-05T11:25:10.601Z,0.63
2023-03-05T11:27:44.022Z,0.57
2023-03-05T11:30:34.743Z,0.90
2023-03-05T11:33:16.033Z,0.80
2023-03-05T11:35:44.456Z,1.00
2023-03-05T11:38:26.157Z,1.27
2023-03-05T11:41:01.657Z,2.75
2023-03-05T11:43:31.278Z,2.08
2023-03-05T11:46:03.228Z,1.38
2023-03-05T11:48:39.925Z,0.90
2023-03-05T11:51:36.371Z,1.10
2023-03-05T11:54:08.997Z,1.13
2023-03-05T11:57:08.636Z,0.60
2023-03-05T11:59:40.824Z,3.10
2023-03-05T12:02:34.110Z,1.75
2023-03-05T12:05:03.712Z,1.02
2023-03-05T12:08:04.869Z,1.00
2023-03-05T12:13:35.114Z,0.85
2023-03-05T12:16:39.485Z,1.20
2023-03-05T12:19:32.749Z,1.48
2023-03-05T12:25:28.316Z,1.42
2023-03-05T12:28:07.314Z,1.65
2023-03-05T12:30:35.689Z,1.55
2023-03-05T12:33:08.019Z,1.40
2023-03-05T12:35:47.998Z,1.50
2023-03-05T12:38:30.426Z,1.38
2023-03-05T12:41:28.305Z,1.40
2023-03-05T12:44:04.853Z,1.40
2023-03-05T12:46:35.829Z,1.17
2023-03-05T12:49:24.143Z,0.95
2023-03-05T12:51:59.641Z,1.30
2023-03-05T12:54:39.839Z,1.15
2023-03-05T12:57:23.396Z,1.15
2023-03-05T13:00:09.444Z,1.75
2023-03-05T13:02:42.450Z,2.55
2023-03-05T13:05:27.925Z,1.45
2023-03-05T13:08:23.075Z,1.00
2023-03-05T13:11:46.014Z,0.70
2023-03-05T13:14:32.094Z,6.95
2023-03-05T13:17:00.473Z,2.70
2023-03-05T13:19:29.477Z,4.57
2023-03-05T13:22:03.328Z,1.45
2023-03-05T13:24:31.870Z,1.27
2023-03-05T13:26:59.795Z,0.75
2023-03-05T13:29:28.428Z,0.93
2023-03-05T13:32:18.642Z,1.00
2023-03-05T13:34:48.147Z,0.80
2023-03-05T13:37:20.750Z,1.13
2023-03-05T13:39:51.197Z,0.80
2023-03-05T13:42:24.374Z,0.60
2023-03-05T13:45:09.238Z,0.70
2023-03-05T13:47:37.832Z,0.70
2023-03-05T13:50:22.169Z,0.60
2023-03-05T13:52:50.033Z,0.63
2023-03-05T13:55:19.113Z,1.10
2023-03-05T13:57:51.361Z,0.98
2023-03-05T14:00:44.166Z,1.00
2023-03-05T14:03:22.884Z,1.27
2023-03-05T14:05:55.060Z,1.02
2023-03-05T14:08:30.487Z,0.73
2023-03-05T14:11:17.553Z,1.20
2023-03-05T14:13:47.843Z,0.80
2023-03-05T14:16:25.481Z,0.90
2023-03-05T14:19:04.789Z,1.00
2023-03-05T14:21:58.478Z,0.80
2023-03-05T14:24:28.638Z,0.65
2023-03-05T14:27:22.123Z,0.60
2023-03-05T14:29:50.019Z,0.60
2023-03-05T14:32:30.265Z,0.60
2023-03-05T14:34:59.890Z,0.55
2023-03-05T14:37:44.458Z,0.43
2023-03-05T14:40:32.153Z,0.70
2023-03-05T14:45:55.812Z,0.80
2023-03-05T14:48:23.832Z,0.70
2023-03-05T14:50:56.800Z,0.70
2023-03-05T14:53:31.469Z,0.50
2023-03-05T14:55:59.843Z,0.70
2023-03-05T14:58:35.440Z,0.77
2023-03-05T15:01:04.276Z,0.70
2023-03-05T15:03:37.964Z,0.50
2023-03-05T15:06:06.071Z,1.02
2023-03-05T15:09:02.767Z,0.70
2023-03-05T15:11:30.102Z,0.60
2023-03-05T15:13:57.988Z,0.90
2023-03-05T15:16:25.854Z,0.70
2023-03-05T15:18:58.782Z,1.02
2023-03-05T15:21:30.811Z,1.02
2023-03-05T15:24:02.828Z,0.45
2023-03-05T15:26:29.755Z,0.75
2023-03-05T15:31:31.095Z,1.00
2023-03-05T15:33:57.930Z,0.60
2023-03-05T15:36:25.845Z,0.70
2023-03-05T15:38:53.790Z,0.75
2023-03-05T15:41:23.771Z,0.90
2023-03-05T15:43:53.716Z,0.88
2023-03-05T15:46:21.883Z,0.70
2023-03-05T15:57:29.165Z,1.05
2023-03-05T15:59:57.909Z,1.02
2023-03-05T16:02:50.214Z,1.20
2023-03-05T16:05:18.566Z,0.95
2023-03-05T16:07:53.261Z,0.90
2023-03-05T16:10:29.890Z,1.00
2023-03-05T16:13:03.616Z,0.60
2023-03-05T16:15:49.586Z,0.60
2023-03-05T16:21:27.492Z,1.20
2023-03-05T16:23:55.772Z,1.48
2023-03-05T16:26:27.787Z,1.00
2023-03-05T16:29:06.721Z,1.15
2023-03-05T16:31:43.110Z,1.27
2023-03-05T16:34:14.233Z,0.80
2023-03-05T16:37:14.960Z,1.10
2023-03-05T16:39:42.589Z,0.73
2023-03-05T16:42:09.766Z,1.15
2023-03-05T16:47:30.134Z,1.60
2023-03-05T16:50:04.101Z,0.70
2023-03-05T16:52:31.975Z,0.82
2023-03-05T16:54:59.920Z,0.95
2023-03-05T16:57:31.807Z,0.77
2023-03-05T17:00:02.413Z,0.70
2023-03-05T17:02:54.978Z,1.00
2023-03-05T17:05:29.768Z,0.75
2023-03-05T17:08:28.650Z,0.80
2023-03-05T17:10:55.799Z,0.80
2023-03-05T17:13:28.959Z,0.90
2023-03-05T17:16:04.319Z,0.98
2023-03-05T17:18:33.078Z,1.08
2023-03-05T17:21:01.253Z,1.00
2023-03-05T17:23:31.987Z,0.90
2023-03-05T17:26:07.097Z,1.08
2023-03-05T17:28:38.964Z,1.10
2023-03-05T17:31:05.898Z,0.90
2023-03-05T17:33:38.623Z,1.05
2023-03-05T17:36:11.292Z,1.50
2023-03-05T17:38:39.782Z,1.30
2023-03-05T17:41:07.906Z,0.90
2023-03-05T17:49:20.120Z,0.93
2023-03-05T17:54:39.837Z,1.10
2023-03-05T17:57:08.138Z,1.15
2023-03-05T17:59:35.857Z,1.25
2023-03-05T18:02:08.865Z,1.10
2023-03-05T18:04:36.582Z,1.10
2023-03-05T18:07:04.065Z,1.23
2023-03-05T18:09:56.974Z,0.93
2023-03-05T18:12:23.886Z,1.30
2023-03-05T18:14:51.774Z,0.90
2023-03-05T18:17:19.779Z,1.33
2023-03-05T18:19:52.803Z,1.00
2023-03-05T18:22:20.015Z,1.25
2023-03-05T18:24:51.803Z,1.40
2023-03-05T18:27:20.121Z,1.35
2023-03-05T18:29:50.048Z,1.30
2023-03-05T18:35:16.223Z,1.30
2023-03-05T18:37:43.739Z,1.48
2023-03-05T18:43:14.153Z,1.23
2023-03-05T18:45:41.763Z,1.30
2023-03-05T18:48:09.764Z,1.65
2023-03-05T18:50:38.011Z,1.20
2023-03-05T18:53:13.713Z,1.40
2023-03-05T18:56:06.268Z,1.58
2023-03-05T18:58:33.715Z,1.27
2023-03-05T19:01:28.091Z,1.15
2023-03-05T19:03:56.200Z,1.35
2023-03-05T19:06:53.293Z,1.13
2023-03-05T19:09:38.960Z,1.17
2023-03-05T19:12:05.825Z,1.00
2023-03-05T19:14:33.763Z,1.15
2023-03-05T19:17:01.765Z,1.30
2023-03-05T19:19:29.758Z,1.10
2023-03-05T19:22:00.180Z,1.20
2023-03-05T19:24:30.098Z,1.05
2023-03-05T19:27:00.962Z,1.10
2023-03-05T19:29:32.984Z,1.40
2023-03-05T19:31:59.811Z,1.30
2023-03-05T19:34:28.162Z,1.48
2023-03-05T19:39:48.000Z,1.35
2023-03-05T19:42:16.014Z,1.85
2023-03-05T19:45:08.481Z,1.60
2023-03-05T19:48:01.211Z,2.13
2023-03-05T19:50:30.025Z,2.00
2023-03-05T19:52:58.037Z,1.98
2023-03-05T19:55:25.937Z,2.60
2023-03-05T19:57:53.804Z,2.30
2023-03-05T20:00:22.340Z,2.70
2023-03-05T20:02:51.726Z,2.60
2023-03-05T20:05:23.000Z,2.85
2023-03-05T20:07:49.778Z,2.83
2023-03-05T20:10:18.124Z,2.80
2023-03-05T20:12:48.344Z,2.60
2023-03-05T20:15:16.249Z,2.97
2023-03-05T20:17:45.935Z,2.65
2023-03-05T20:20:15.977Z,2.80
2023-03-05T20:22:45.379Z,2.80
2023-03-05T20:25:38.608Z,3.00
2023-03-05T20:28:31.772Z,3.20
2023-03-05T20:31:30.883Z,3.38
2023-03-05T20:33:57.831Z,3.38
2023-03-05T20:36:26.348Z,3.28
2023-03-05T20:38:53.875Z,2.95
2023-03-05T20:41:22.194Z,3.85
2023-03-05T20:43:51.708Z,3.97
2023-03-05T20:46:26.901Z,3.65
2023-03-05T20:48:57.826Z,3.70
2023-03-05T20:51:36.045Z,4.30
2023-03-05T20:54:12.132Z,3.92
2023-03-05T20:59:31.818Z,4.10
2023-03-05T21:02:00.130Z,4.05
2023-03-05T21:04:27.908Z,3.95
2023-03-05T21:06:56.204Z,3.90
2023-03-05T21:09:23.811Z,4.13
2023-03-05T21:11:56.774Z,3.78
2023-03-05T21:14:25.056Z,4.80
2023-03-05T21:16:58.104Z,5.28
2023-03-05T21:19:27.974Z,4.65
2023-03-05T21:21:55.802Z,4.60
2023-03-05T21:24:30.011Z,4.88
2023-03-05T21:27:05.878Z,4.53
2023-03-05T21:32:26.035Z,4.50
2023-03-05T21:34:54.113Z,4.03
2023-03-05T21:37:24.959Z,4.70
2023-03-05T21:40:19.235Z,4.45
2023-03-05T21:42:48.760Z,4.50
2023-03-05T21:45:19.396Z,5.63
2023-03-05T21:47:48.054Z,4.65
2023-03-05T21:50:21.379Z,5.50
2023-03-05T21:52:55.908Z,5.38
2023-03-05T21:55:32.339Z,5.10
2023-03-05T21:58:00.919Z,4.53
2023-03-05T22:00:28.777Z,5.95
2023-03-05T22:03:21.781Z,5.05
2023-03-05T22:05:49.785Z,4.88
2023-03-05T22:11:36.160Z,5.43
2023-03-05T22:14:03.729Z,4.75
2023-03-05T22:17:02.267Z,3.85
2023-03-05T22:19:56.823Z,3.80
2023-03-05T22:22:23.902Z,4.45
2023-03-05T22:24:52.101Z,4.07
2023-03-05T22:27:19.740Z,3.58
2023-03-05T22:30:19.194Z,3.42
2023-03-05T22:32:48.005Z,3.20
2023-03-05T22:35:21.394Z,3.20
2023-03-05T22:37:54.960Z,3.08
2023-03-05T22:40:27.341Z,3.28
2023-03-05T22:42:55.814Z,3.50
2023-03-05T22:45:23.799Z,4.00
2023-03-05T22:47:51.856Z,3.55
2023-03-05T22:50:20.353Z,3.45
2023-03-05T22:52:47.962Z,3.33
2023-03-05T22:55:16.411Z,3.67
2023-03-05T22:57:44.494Z,3.80
2023-03-05T23:00:16.267Z,3.70
2023-03-05T23:02:44.952Z,3.47
2023-03-05T23:05:12.002Z,3.70
2023-03-05T23:07:42.174Z,3.65
2023-03-05T23:10:36.342Z,3.47
2023-03-05T23:13:28.845Z,2.90
2023-03-05T23:15:55.805Z,2.67
2023-03-05T23:18:23.794Z,3.03
2023-03-05T23:20:53.552Z,2.55
2023-03-05T23:23:21.856Z,2.35
2023-03-05T23:25:55.862Z,2.35
2023-03-05T23:28:23.801Z,1.73
2023-03-05T23:30:51.829Z,2.63
2023-03-05T23:33:22.398Z,2.58
2023-03-05T23:35:55.892Z,2.55
2023-03-05T23:38:25.604Z,2.60
2023-03-05T23:41:01.268Z,2.17
2023-03-05T23:43:53.767Z,1.98
2023-03-05T23:46:21.857Z,2.50
2023-03-05T23:48:49.764Z,2.65
2023-03-05T23:51:18.126Z,2.70
2023-03-05T23:53:46.091Z,2.63
2023-03-05T23:56:39.802Z,3.00
2023-03-05T23:59:07.852Z,3.30
